TimeEDT,TemperatureF,Dew PointF,Humidity,Sea Level PressureIn,VisibilityMPH,Wind Direction,Wind SpeedMPH,Gust SpeedMPH,PrecipitationIn,Events,Conditions,WindDirDegrees,DateUTC
12:55 AM,72.0,72.0,100,30.12,10.0,East,9.2,-,N/A,,Clear,90,2012-10-05 04:55:00
1:55 AM,72.5,72.5,100,30.11,10.0,East,8.1,-,N/A,,Clear,80,2012-10-05 05:55:00
2:55 AM,72.7,72.7,100,30.09,10.0,East,9.2,-,N/A,,Clear,80,2012-10-05 06:55:00
3:55 AM,73.4,73.4,100,30.08,10.0,East,9.2,-,N/A,,Clear,90,2012-10-05 07:55:00
4:55 AM,73.8,73.8,100,30.08,10.0,East,8.1,-,N/A,,Clear,80,2012-10-05 08:55:00
5:55 AM,72.3,72.3,100,30.09,10.0,ENE,6.9,-,N/A,,Clear,70,2012-10-05 09:55:00
6:55 AM,73.0,73.0,100,30.09,10.0,East,9.2,-,N/A,,Clear,80,2012-10-05 10:55:00
7:55 AM,73.9,73.9,100,30.09,10.0,East,10.4,-,N/A,,Clear,90,2012-10-05 11:55:00
8:55 AM,77.4,77.0,99,30.09,10.0,East,9.2,-,N/A,,Clear,80,2012-10-05 12:55:00
9:55 AM,81.0,77.0,88,30.09,10.0,East,8.1,-,N/A,,Clear,90,2012-10-05 13:55:00
10:55 AM,84.2,77.7,81,30.08,10.0,ESE,5.8,-,N/A,,Clear,120,2012-10-05 14:55:00
11:32 AM,86.0,78.8,79,30.09,10.0,Variable,3.5,-,N/A,,Mostly Cloudy,0,2012-10-05 15:32:00
11:52 AM,86.0,78.8,79,30.08,10.0,South,8.1,-,N/A,,Scattered Clouds,180,2012-10-05 15:52:00
11:54 AM,86.0,78.8,79,30.08,10.0,South,6.9,-,N/A,,Mostly Cloudy,180,2012-10-05 15:54:00
11:55 AM,86.7,79.2,78,30.08,10.0,South,6.9,-,N/A,,Mostly Cloudy,180,2012-10-05 15:55:00
11:56 AM,86.0,78.8,79,30.08,10.0,South,8.1,-,N/A,,Scattered Clouds,180,2012-10-05 15:56:00
12:55 PM,88.5,78.8,73,30.07,10.0,South,5.8,-,N/A,,Partly Cloudy,190,2012-10-05 16:55:00
1:04 PM,89.6,78.8,70,30.07,10.0,SSW,4.6,-,N/A,,Mostly Cloudy,210,2012-10-05 17:04:00
1:05 PM,89.6,78.8,70,30.07,10.0,Variable,3.5,-,N/A,,Mostly Cloudy,0,2012-10-05 17:05:00
1:07 PM,89.6,78.8,70,30.07,10.0,Calm,Calm,-,N/A,,Mostly Cloudy,0,2012-10-05 17:07:00
1:29 PM,89.6,78.8,70,30.06,10.0,West,4.6,-,N/A,,Mostly Cloudy,280,2012-10-05 17:29:00
1:55 PM,90.9,79.5,69,30.05,10.0,West,4.6,-,N/A,,Clear,280,2012-10-05 17:55:00
2:55 PM,91.8,78.6,65,30.01,10.0,WNW,5.8,-,N/A,,Partly Cloudy,300,2012-10-05 18:55:00
3:55 PM,91.9,79.2,66,29.99,10.0,NNW,10.4,-,N/A,,Clear,330,2012-10-05 19:55:00
4:55 PM,84.9,78.6,81,29.97,10.0,NNW,9.2,-,N/A,,Clear,330,2012-10-05 20:55:00
5:55 PM,84.7,78.1,80,29.97,10.0,North,8.1,-,N/A,,Clear,350,2012-10-05 21:55:00
6:55 PM,81.9,77.4,86,29.98,10.0,Variable,6.9,-,N/A,,Clear,0,2012-10-05 22:55:00
7:39 PM,80.6,75.2,84,30.01,10.0,East,21.9,27.6,N/A,,Mostly Cloudy,90,2012-10-05 23:39:00
7:43 PM,80.6,73.4,79,30.01,10.0,East,16.1,27.6,N/A,,Mostly Cloudy,90,2012-10-05 23:43:00
7:46 PM,78.8,73.4,83,30.01,10.0,East,18.4,27.6,N/A,,Overcast,100,2012-10-05 23:46:00
7:54 PM,78.8,75.2,89,30.02,9.0,ESE,16.1,-,N/A,Rain,Light Rain,120,2012-10-05 23:54:00
7:55 PM,78.4,74.7,88,30.02,6.0,ESE,16.1,-,0.02,Rain,Light Rain,120,2012-10-05 23:55:00
7:56 PM,78.8,75.2,89,30.02,5.0,ESE,13.8,-,N/A,Rain,Light Rain,120,2012-10-05 23:56:00
7:59 PM,78.8,75.2,89,30.02,2.5,ESE,13.8,-,N/A,Rain,Heavy Rain,110,2012-10-05 23:59:00
8:03 PM,77.0,75.2,94,30.03,2.0,East,13.8,-,N/A,Rain,Heavy Rain,100,2012-10-06 00:03:00
8:04 PM,77.0,75.2,94,30.03,1.8,ESE,13.8,-,N/A,Rain,Heavy Rain,110,2012-10-06 00:04:00
8:06 PM,77.0,75.2,94,30.02,1.2,ESE,16.1,-,N/A,Rain,Heavy Rain,110,2012-10-06 00:06:00
8:07 PM,77.0,75.2,94,30.02,1.0,ESE,15.0,-,N/A,Rain,Heavy Rain,110,2012-10-06 00:07:00
8:09 PM,77.0,75.2,94,30.03,0.8,ESE,15.0,-,N/A,Rain,Heavy Rain,110,2012-10-06 00:09:00
8:15 PM,75.2,75.2,100,30.03,0.8,ESE,13.8,-,N/A,Rain,Heavy Rain,110,2012-10-06 00:15:00
8:16 PM,75.2,75.2,100,30.03,1.0,ESE,15.0,-,N/A,Rain,Rain,110,2012-10-06 00:16:00
8:18 PM,75.2,75.2,100,30.04,1.2,ESE,12.7,-,N/A,Rain,Rain,110,2012-10-06 00:18:00
8:19 PM,75.2,75.2,100,30.04,1.8,ESE,12.7,-,N/A,Rain,Rain,110,2012-10-06 00:19:00
8:20 PM,75.2,75.2,100,30.04,2.0,ESE,12.7,-,N/A,Rain,Rain,110,2012-10-06 00:20:00
8:22 PM,75.2,75.2,100,30.04,3.0,ESE,10.4,-,N/A,Rain,Light Rain,110,2012-10-06 00:22:00
8:25 PM,75.2,75.2,100,30.03,5.0,ESE,11.5,-,N/A,Rain,Light Rain,110,2012-10-06 00:25:00
8:36 PM,73.4,73.4,100,30.04,10.0,East,4.6,-,N/A,,Light Drizzle,90,2012-10-06 00:36:00
8:39 PM,73.4,73.4,100,30.04,10.0,East,5.8,-,N/A,,Mostly Cloudy,90,2012-10-06 00:39:00
8:55 PM,73.9,73.9,100,30.03,10.0,East,5.8,-,0.42,,Mostly Cloudy,100,2012-10-06 00:55:00
9:55 PM,73.9,73.9,100,30.04,10.0,Calm,Calm,-,N/A,,Clear,0,2012-10-06 01:55:00
9:59 PM,73.4,73.4,100,30.03,10.0,Calm,Calm,-,N/A,Rain,Light Rain,0,2012-10-06 01:59:00
10:09 PM,73.4,73.4,100,30.03,10.0,SSE,3.5,-,N/A,,Clear,150,2012-10-06 02:09:00
10:21 PM,73.4,73.4,100,30.04,10.0,Calm,Calm,-,N/A,Rain,Light Rain,0,2012-10-06 02:21:00
10:32 PM,73.4,73.4,100,30.03,10.0,Calm,Calm,-,N/A,,Scattered Clouds,0,2012-10-06 02:32:00
10:55 PM,73.9,73.9,100,30.02,10.0,Calm,Calm,-,0.00,,Mostly Cloudy,0,2012-10-06 02:55:00
11:27 PM,73.4,73.4,100,30.01,10.0,NE,3.5,-,N/A,Rain,Light Rain,40,2012-10-06 03:27:00
11:37 PM,73.4,73.4,100,30.01,10.0,NNE,4.6,-,N/A,,Partly Cloudy,30,2012-10-06 03:37:00
11:55 PM,72.9,72.9,100,30.01,10.0,NNE,5.8,-,0.00,,Clear,20,2012-10-06 03:55:00